Time;durP1;ratioP1;P1;durP2;ratioP2;P2;SDS_P1;SDS_P2;PMS_P1;PMS_P2;Temp;Humidity;BMP_temperature;BMP_pressure;BME280_temperature;BME280_humidity;BME280_pressure;Samples;Min_cycle;Max_cycle;Signal;HPM_P1;HPM_P2
2021/12/19 00:01:52;;;;;;;0.30;0.15;;;14.80;55.80;;;;;;5129426;28;20039;-63
2021/12/19 00:04:27;;;;;;;0.20;0.10;;;14.80;55.80;;;;;;5128144;28;20547;-63
2021/12/19 00:09:39;;;;;;;0.77;0.20;;;14.80;55.80;;;;;;5129327;28;20036;-62
2021/12/19 00:12:05;;;;;;;0.52;0.10;;;14.80;55.80;;;;;;5127990;28;20031;-62
2021/12/19 00:14:31;;;;;;;0.30;0.10;;;14.80;55.80;;;;;;5128366;28;20054;-63
2021/12/19 00:16:57;;;;;;;0.30;0.10;;;14.80;55.90;;;;;;5129191;28;20043;-63
2021/12/19 00:19:26;;;;;;;0.32;0.20;;;14.80;55.80;;;;;;5129412;27;20035;-63
2021/12/19 00:21:51;;;;;;;0.43;0.10;;;14.80;55.80;;;;;;5127587;28;20052;-63
2021/12/19 00:24:17;;;;;;;0.20;0.10;;;14.80;55.90;;;;;;5128110;28;20035;-63
2021/12/19 00:26:43;;;;;;;0.35;0.30;;;14.80;55.90;;;;;;5127686;28;20039;-63
2021/12/19 00:29:09;;;;;;;0.77;0.15;;;14.80;55.90;;;;;;5127040;28;20036;-63
2021/12/19 00:31:35;;;;;;;0.30;0.10;;;14.80;55.90;;;;;;5125273;28;20111;-63
2021/12/19 00:34:01;;;;;;;0.30;0.10;;;14.80;55.90;;;;;;5114014;28;20054;-63
2021/12/19 00:36:27;;;;;;;0.32;0.10;;;14.80;55.90;;;;;;5115303;28;20118;-63
2021/12/19 00:38:53;;;;;;;0.40;0.10;;;14.80;55.90;;;;;;5113963;28;20043;-63
2021/12/19 00:41:19;;;;;;;0.30;0.10;;;14.80;55.90;;;;;;5113720;28;20055;-63
2021/12/19 00:43:52;;;;;;;0.57;0.10;;;14.70;55.80;;;;;;5114960;28;20042;-63
2021/12/19 00:46:19;;;;;;;0.55;0.10;;;14.80;55.90;;;;;;5113959;28;20036;-63
2021/12/19 00:48:47;;;;;;;0.35;0.10;;;14.70;55.80;;;;;;5113571;28;20088;-63
2021/12/19 00:51:16;;;;;;;0.17;0.10;;;14.80;56.00;;;;;;5114167;28;20047;-63
2021/12/19 00:53:44;;;;;;;0.80;0.20;;;14.70;55.90;;;;;;5114837;28;20036;-63
2021/12/19 00:56:10;;;;;;;0.30;0.10;;;14.70;55.90;;;;;;5113502;28;20048;-63
2021/12/19 00:58:36;;;;;;;0.40;0.10;;;14.70;55.90;;;;;;5113614;28;20100;-63
2021/12/19 01:01:04;;;;;;;1.08;0.20;;;14.70;55.90;;;;;;5114608;28;20092;-62
2021/12/19 01:03:30;;;;;;;0.30;0.10;;;14.80;55.90;;;;;;5114757;28;20040;-63
2021/12/19 01:05:56;;;;;;;0.10;0.00;;;14.70;55.90;;;;;;5113299;28;20100;-63
2021/12/19 01:08:22;;;;;;;0.52;0.10;;;14.70;55.90;;;;;;5114532;28;20086;-63
2021/12/19 01:10:49;;;;;;;0.50;0.13;;;14.70;55.90;;;;;;5114553;28;20490;-63
2021/12/19 01:13:16;;;;;;;1.50;0.13;;;14.70;56.00;;;;;;5113068;28;20491;-63
2021/12/19 01:15:45;;;;;;;1.02;0.20;;;14.70;56.00;;;;;;5113187;28;20044;-62
2021/12/19 01:18:12;;;;;;;0.75;0.20;;;14.70;56.00;;;;;;5114477;28;20035;-63
2021/12/19 01:20:39;;;;;;;0.28;0.10;;;14.70;56.00;;;;;;5114116;28;20079;-63
2021/12/19 01:23:06;;;;;;;0.40;0.10;;;14.70;56.00;;;;;;5112945;28;20039;-63
2021/12/19 01:25:32;;;;;;;0.63;0.10;;;14.70;56.00;;;;;;5114301;28;20046;-63
2021/12/19 01:27:58;;;;;;;0.20;0.10;;;14.70;56.00;;;;;;5114181;28;20110;-62
2021/12/19 01:30:24;;;;;;;0.60;0.30;;;14.70;56.00;;;;;;5113422;28;20555;-63
2021/12/19 01:32:50;;;;;;;0.43;0.10;;;14.70;56.00;;;;;;5112893;28;20051;-63
2021/12/19 01:35:18;;;;;;;0.28;0.10;;;14.70;56.00;;;;;;5112720;28;20122;-63
2021/12/19 01:37:44;;;;;;;0.70;0.17;;;14.70;56.10;;;;;;5114109;28;20047;-63
2021/12/19 01:40:12;;;;;;;0.50;0.20;;;14.70;56.10;;;;;;5112840;28;20124;-63
2021/12/19 01:42:41;;;;;;;0.82;0.10;;;14.70;56.00;;;;;;5112686;28;20040;-63
2021/12/19 01:45:13;;;;;;;0.15;0.10;;;14.70;56.10;;;;;;5112959;28;20042;-63
2021/12/19 01:47:40;;;;;;;0.25;0.10;;;14.70;56.10;;;;;;5112828;28;20079;-63
2021/12/19 01:50:08;;;;;;;0.43;0.10;;;14.70;56.10;;;;;;5112442;28;20050;-63
2021/12/19 01:52:35;;;;;;;0.50;0.10;;;14.70;56.10;;;;;;5112697;28;20051;-64
2021/12/19 01:55:01;;;;;;;1.50;0.20;;;14.70;56.10;;;;;;5113614;28;20503;-63
2021/12/19 01:57:27;;;;;;;0.40;0.10;;;14.70;56.10;;;;;;5113888;28;20031;-63
2021/12/19 01:59:54;;;;;;;0.30;0.10;;;14.70;56.10;;;;;;5113753;28;20391;-63
2021/12/19 02:02:21;;;;;;;0.65;0.10;;;14.70;56.10;;;;;;5113538;28;20035;-63
2021/12/19 02:04:47;;;;;;;0.38;0.10;;;14.70;56.10;;;;;;5112246;28;20535;-63
2021/12/19 02:07:13;;;;;;;0.40;0.10;;;14.70;56.10;;;;;;5112214;28;20487;-63
2021/12/19 02:09:42;;;;;;;0.32;0.10;;;14.70;56.10;;;;;;5113947;28;20379;-63
2021/12/19 02:12:08;;;;;;;0.20;0.10;;;14.70;56.10;;;;;;5113374;28;20039;-63
2021/12/19 02:14:34;;;;;;;0.52;0.10;;;14.60;56.10;;;;;;5112010;28;20047;-62
2021/12/19 02:17:00;;;;;;;1.10;0.10;;;14.70;56.10;;;;;;5112313;28;20038;-62
2021/12/19 02:19:28;;;;;;;0.30;0.10;;;14.60;56.00;;;;;;5111970;28;20111;-63
2021/12/19 02:21:54;;;;;;;0.30;0.10;;;14.70;56.10;;;;;;5112782;28;20055;-63
2021/12/19 02:24:19;;;;;;;0.20;0.10;;;14.60;56.10;;;;;;5113011;28;20039;-63
2021/12/19 02:26:45;;;;;;;0.40;0.10;;;14.70;56.10;;;;;;5112989;28;20119;-63
2021/12/19 02:29:12;;;;;;;0.20;0.10;;;14.60;56.10;;;;;;5112071;28;20168;-62
2021/12/19 02:31:39;;;;;;;0.95;0.28;;;14.60;56.10;;;;;;5111954;28;20071;-63
2021/12/19 02:34:13;;;;;;;0.40;0.10;;;14.60;56.10;;;;;;5113070;28;20054;-62
2021/12/19 02:48:14;;;;;;;0.20;0.10;;;14.60;56.10;;;;;;5091536;28;20086;-65
2021/12/19 02:50:49;;;;;;;0.30;0.10;;;14.60;56.10;;;;;;5091269;28;20055;-63
2021/12/19 02:53:19;;;;;;;0.80;0.10;;;14.60;56.10;;;;;;5109562;28;20425;-63
2021/12/19 02:55:45;;;;;;;0.30;0.10;;;14.60;56.10;;;;;;5109590;28;20317;-62
2021/12/19 02:58:11;;;;;;;0.20;0.10;;;14.60;56.10;;;;;;5091073;28;20051;-63
2021/12/19 03:00:37;;;;;;;0.32;0.00;;;14.60;56.10;;;;;;5091195;28;20046;-63
2021/12/19 03:03:06;;;;;;;0.20;0.00;;;14.60;56.10;;;;;;5109344;28;20491;-63
2021/12/19 03:05:33;;;;;;;0.28;0.10;;;14.60;56.20;;;;;;5109402;28;20035;-63
2021/12/19 03:08:02;;;;;;;0.63;0.10;;;14.60;56.20;;;;;;5091388;28;20470;-63
2021/12/19 03:18:47;;;;;;;0.40;0.10;;;14.60;56.20;;;;;;5108063;28;20044;-62
2021/12/19 03:21:16;;;;;;;0.15;0.00;;;14.60;56.20;;;;;;5091032;28;20123;-63
2021/12/19 03:23:42;;;;;;;0.10;0.00;;;14.60;56.20;;;;;;5090735;28;20047;-66
2021/12/19 03:26:08;;;;;;;0.40;0.10;;;14.60;56.20;;;;;;5090240;28;20051;-63
2021/12/19 03:28:34;;;;;;;0.38;0.15;;;14.60;56.90;;;;;;5090819;28;20040;-62
2021/12/19 03:31:02;;;;;;;0.20;0.10;;;14.60;56.20;;;;;;5108900;28;20391;-63
2021/12/19 03:33:29;;;;;;;0.80;0.15;;;14.60;56.20;;;;;;5090727;28;20051;-63
2021/12/19 03:35:58;;;;;;;0.00;0.00;;;14.60;56.20;;;;;;5108701;28;20119;-63
2021/12/19 03:38:25;;;;;;;0.40;0.00;;;14.60;57.00;;;;;;5099926;28;20060;-62
2021/12/19 03:40:55;;;;;;;0.20;0.00;;;14.50;56.20;;;;;;5088441;28;20036;-62
2021/12/19 03:43:23;;;;;;;0.10;0.00;;;14.50;56.20;;;;;;5069999;28;20119;-63
2021/12/19 03:45:49;;;;;;;0.20;0.00;;;14.50;56.30;;;;;;5088276;28;20592;-63
2021/12/19 03:48:16;;;;;;;0.60;0.00;;;14.50;56.30;;;;;;5088136;28;20403;-63
2021/12/19 03:50:47;;;;;;;0.00;0.00;;;14.50;56.30;;;;;;5057957;28;20053;-63
2021/12/19 03:53:16;;;;;;;0.10;0.00;;;14.50;56.40;;;;;;5056662;28;20195;-63
2021/12/19 03:55:42;;;;;;;0.20;0.00;;;14.50;56.30;;;;;;5074604;28;20475;-61
2021/12/19 03:58:08;;;;;;;0.10;0.00;;;14.50;56.30;;;;;;5074460;28;20091;-63
2021/12/19 04:00:37;;;;;;;0.17;0.00;;;14.50;56.30;;;;;;5074470;28;20094;-63
2021/12/19 04:03:09;;;;;;;0.10;0.10;;;14.50;56.30;;;;;;5074261;28;20456;-63
2021/12/19 04:05:35;;;;;;;0.30;0.00;;;14.50;56.30;;;;;;5056415;28;20127;-63
2021/12/19 04:08:04;;;;;;;0.10;0.00;;;14.40;56.20;;;;;;5074379;28;20381;-62
2021/12/19 04:10:30;;;;;;;0.00;0.00;;;14.50;56.30;;;;;;5056309;28;20048;-63
2021/12/19 04:12:57;;;;;;;0.10;0.00;;;14.40;56.30;;;;;;5074307;28;20041;-62
2021/12/19 04:15:23;;;;;;;0.13;0.00;;;14.50;56.30;;;;;;5056246;28;20087;-63
2021/12/19 04:17:49;;;;;;;1.10;0.10;;;14.50;56.30;;;;;;5073964;28;20076;-63
2021/12/19 04:20:18;;;;;;;0.00;0.00;;;14.40;56.20;;;;;;5056370;28;20066;-63
2021/12/19 04:22:44;;;;;;;0.40;0.00;;;14.40;56.30;;;;;;5074437;28;20436;-63
2021/12/19 04:25:11;;;;;;;0.17;0.00;;;14.50;56.30;;;;;;5073372;28;20075;-63
2021/12/19 04:27:37;;;;;;;0.13;0.00;;;14.40;56.20;;;;;;5074086;28;20067;-63
2021/12/19 04:30:05;;;;;;;0.22;0.00;;;14.40;56.20;;;;;;5055811;28;20040;-63
2021/12/19 04:32:39;;;;;;;0.10;0.00;;;14.40;56.30;;;;;;5073848;28;20111;-63
2021/12/19 04:35:06;;;;;;;0.10;0.00;;;14.40;56.30;;;;;;5056173;28;20036;-63
2021/12/19 04:37:46;;;;;;;0.30;0.00;;;14.40;56.20;;;;;;5055760;28;20044;-63
2021/12/19 04:40:20;;;;;;;0.10;0.00;;;14.40;56.20;;;;;;5055741;28;20527;-63
2021/12/19 04:51:21;;;;;;;0.17;0.00;;;14.40;56.30;;;;;;5055509;28;20049;-62
2021/12/19 04:54:00;;;;;;;0.10;0.00;;;14.40;56.30;;;;;;5073411;28;20381;-63
2021/12/19 04:56:37;;;;;;;0.10;0.00;;;14.40;56.30;;;;;;5073451;28;20043;-63
2021/12/19 04:59:50;;;;;;;0.00;0.00;;;14.40;56.30;;;;;;5055288;28;20055;-62
2021/12/19 05:15:47;;;;;;;0.10;0.00;;;14.40;56.40;;;;;;5055051;28;20056;-62
2021/12/19 05:18:13;;;;;;;0.22;0.05;;;14.40;56.40;;;;;;5072872;28;20041;-63
2021/12/19 05:20:49;;;;;;;0.20;0.00;;;14.40;56.30;;;;;;5055171;28;20044;-63
2021/12/19 05:26:14;;;;;;;0.00;0.00;;;14.40;56.40;;;;;;5129555;27;20939;-62
2021/12/19 05:28:40;;;;;;;0.00;0.00;;;14.30;56.30;;;;;;5129284;28;20048;-63
2021/12/19 05:31:06;;;;;;;0.20;0.00;;;14.40;56.40;;;;;;5128906;28;20062;-63
2021/12/19 05:33:32;;;;;;;0.10;0.00;;;14.30;56.30;;;;;;5129144;28;20039;-64
2021/12/19 05:46:56;;;;;;;0.75;0.00;;;14.30;56.40;;;;;;5152865;27;20046;-63
2021/12/19 05:49:22;;;;;;;0.10;0.00;;;14.30;56.40;;;;;;5171821;27;20413;-63
2021/12/19 05:51:48;;;;;;;0.10;0.00;;;14.30;56.30;;;;;;5153193;27;20040;-63
2021/12/19 05:54:15;;;;;;;0.25;0.00;;;14.30;56.30;;;;;;5171569;27;20038;-63
2021/12/19 05:56:41;;;;;;;0.10;0.00;;;14.30;56.30;;;;;;5171418;27;20358;-63
2021/12/19 05:59:08;;;;;;;0.00;0.00;;;14.30;56.40;;;;;;5153011;27;20109;-63
2021/12/19 06:01:34;;;;;;;0.15;0.00;;;14.30;56.40;;;;;;5171578;27;20474;-63
2021/12/19 06:04:00;;;;;;;0.75;0.00;;;14.30;56.30;;;;;;5171307;27;20117;-63
2021/12/19 06:06:29;;;;;;;0.30;0.30;;;14.30;56.30;;;;;;5171403;27;20083;-63
2021/12/19 06:08:54;;;;;;;0.10;0.00;;;14.30;56.40;;;;;;5151893;27;20081;-62
2021/12/19 06:11:20;;;;;;;0.00;0.00;;;14.30;56.30;;;;;;5171763;27;20069;-63
2021/12/19 06:13:49;;;;;;;0.47;0.00;;;14.30;56.30;;;;;;5171091;27;20462;-63
2021/12/19 06:16:14;;;;;;;0.08;0.00;;;14.30;56.40;;;;;;5152395;27;20086;-64
2021/12/19 06:18:40;;;;;;;0.20;0.00;;;14.30;56.40;;;;;;5171049;27;20117;-62
2021/12/19 06:21:06;;;;;;;0.10;0.00;;;14.30;56.40;;;;;;5170998;27;20517;-63
2021/12/19 06:23:33;;;;;;;0.10;0.00;;;14.30;56.40;;;;;;5170937;27;20041;-63
2021/12/19 06:25:59;;;;;;;0.00;0.00;;;14.30;56.40;;;;;;5170887;27;20078;-63
2021/12/19 06:28:25;;;;;;;0.30;0.00;;;14.30;56.50;;;;;;5170819;27;20035;-63
2021/12/19 06:30:51;;;;;;;0.08;0.00;;;14.30;56.40;;;;;;5171116;27;20429;-63
2021/12/19 06:33:16;;;;;;;0.32;0.00;;;14.30;56.50;;;;;;5152445;27;20046;-63
2021/12/19 06:35:42;;;;;;;0.00;0.00;;;14.20;56.40;;;;;;5170721;27;20083;-63
2021/12/19 06:38:08;;;;;;;0.38;0.00;;;14.30;56.50;;;;;;5170304;27;20497;-63
2021/12/19 06:40:34;;;;;;;0.20;0.00;;;14.30;56.50;;;;;;5170447;27;20454;-62
2021/12/19 06:43:00;;;;;;;0.10;0.00;;;14.20;56.40;;;;;;5152000;27;20057;-63
2021/12/19 06:45:26;;;;;;;0.00;0.00;;;14.30;56.50;;;;;;5152056;27;20068;-63
2021/12/19 06:47:52;;;;;;;0.15;0.00;;;14.30;56.50;;;;;;5150464;27;20401;-63
2021/12/19 06:50:18;;;;;;;0.15;0.00;;;14.20;56.40;;;;;;5156368;27;20174;-63
2021/12/19 06:52:45;;;;;;;0.10;0.00;;;14.30;56.50;;;;;;5156639;27;20070;-63
2021/12/19 06:55:13;;;;;;;0.10;0.00;;;14.20;56.40;;;;;;5156453;27;20099;-62
2021/12/19 06:57:39;;;;;;;0.38;0.00;;;14.20;56.40;;;;;;5137863;27;20050;-63
2021/12/19 07:00:15;;;;;;;0.05;0.00;;;14.30;56.50;;;;;;5137658;27;20039;-63
2021/12/19 07:02:41;;;;;;;0.20;0.10;;;14.20;56.40;;;;;;5137794;27;20517;-63
2021/12/19 07:05:07;;;;;;;0.03;0.00;;;14.20;56.40;;;;;;5156345;27;20034;-63
2021/12/19 07:07:33;;;;;;;0.55;0.10;;;14.30;56.50;;;;;;5137960;27;20050;-63
2021/12/19 07:09:59;;;;;;;0.43;0.00;;;14.20;56.40;;;;;;5137576;27;20173;-62
2021/12/19 07:12:26;;;;;;;1.17;0.00;;;14.20;56.40;;;;;;5156204;27;20038;-63
2021/12/19 07:14:54;;;;;;;0.75;0.10;;;14.30;56.50;;;;;;5156249;27;20060;-63
2021/12/19 07:17:23;;;;;;;0.10;0.00;;;14.20;56.40;;;;;;5156075;27;20045;-63
2021/12/19 07:19:49;;;;;;;0.40;0.00;;;14.20;56.40;;;;;;5156088;27;20371;-63
2021/12/19 07:22:15;;;;;;;1.20;0.30;;;14.20;56.40;;;;;;5155912;27;20049;-63
2021/12/19 07:24:41;;;;;;;0.55;0.00;;;14.20;56.40;;;;;;5155816;27;20070;-63
2021/12/19 07:27:07;;;;;;;1.05;0.10;;;14.30;56.40;;;;;;5137506;27;20085;-63
2021/12/19 07:29:33;;;;;;;0.32;0.10;;;14.20;56.40;;;;;;5137252;27;20504;-63
2021/12/19 07:31:59;;;;;;;0.25;0.08;;;14.20;56.40;;;;;;5137274;27;20038;-63
2021/12/19 07:34:32;;;;;;;0.43;0.10;;;14.20;56.40;;;;;;5155880;27;20038;-63
2021/12/19 07:36:58;;;;;;;0.38;0.10;;;14.20;56.40;;;;;;5155390;27;20146;-63
2021/12/19 07:42:14;;;;;;;1.02;0.10;;;14.30;56.50;;;;;;5130258;27;20399;-63
2021/12/19 07:44:40;;;;;;;0.20;0.10;;;14.20;56.50;;;;;;5129262;28;20043;-63
2021/12/19 07:47:07;;;;;;;1.25;0.38;;;14.20;56.50;;;;;;5129148;28;20493;-63
2021/12/19 07:49:33;;;;;;;1.63;0.10;;;14.20;56.50;;;;;;5128971;28;20035;-63
2021/12/19 07:51:59;;;;;;;0.82;0.20;;;14.20;56.50;;;;;;5128876;28;20047;-63
2021/12/19 07:54:24;;;;;;;0.73;0.10;;;14.20;56.50;;;;;;5128701;27;20036;-63
2021/12/19 07:56:51;;;;;;;1.38;0.20;;;14.20;56.50;;;;;;5129948;28;20100;-62
2021/12/19 07:59:18;;;;;;;0.75;0.10;;;14.20;56.50;;;;;;5129976;27;20076;-63
2021/12/19 08:01:44;;;;;;;1.00;0.10;;;14.20;56.50;;;;;;5129910;27;20498;-63
2021/12/19 08:04:09;;;;;;;1.10;0.10;;;14.20;56.50;;;;;;5129998;27;20243;-63
2021/12/19 08:06:36;;;;;;;0.52;0.22;;;14.20;56.50;;;;;;5128791;28;20039;-62
2021/12/19 08:09:09;;;;;;;0.93;0.10;;;14.20;57.30;;;;;;5129783;27;20048;-63
2021/12/19 08:11:42;;;;;;;1.35;0.30;;;14.20;56.50;;;;;;5130153;27;20070;-63
2021/12/19 08:14:11;;;;;;;0.60;0.10;;;14.20;56.50;;;;;;5129690;27;20039;-63
2021/12/19 08:16:37;;;;;;;0.60;0.10;;;14.20;56.50;;;;;;5128374;28;20063;-63
2021/12/19 08:19:04;;;;;;;1.27;0.10;;;14.20;56.50;;;;;;5128593;28;20043;-63
2021/12/19 08:21:31;;;;;;;2.00;0.20;;;14.20;56.50;;;;;;5128172;28;20106;-62
2021/12/19 08:24:02;;;;;;;0.75;0.10;;;14.20;56.40;;;;;;5128227;27;20494;-64
2021/12/19 08:26:29;;;;;;;0.52;0.13;;;14.20;56.40;;;;;;5129655;27;20525;-63
2021/12/19 08:28:55;;;;;;;2.92;0.20;;;14.20;56.50;;;;;;5128029;28;20096;-63
2021/12/19 08:31:21;;;;;;;0.98;0.20;;;14.20;57.20;;;;;;5128309;28;20043;-63
2021/12/19 08:33:47;;;;;;;1.17;0.10;;;14.20;56.50;;;;;;5129027;27;20042;-63
2021/12/19 08:36:13;;;;;;;1.20;0.20;;;14.20;56.40;;;;;;5128314;28;20039;-63
2021/12/19 08:38:39;;;;;;;1.35;0.15;;;14.20;56.50;;;;;;5127889;28;20080;-63
2021/12/19 08:41:11;;;;;;;1.92;0.20;;;14.20;56.50;;;;;;5128757;28;20059;-63
2021/12/19 08:43:36;;;;;;;1.48;0.20;;;14.20;56.50;;;;;;5129056;28;20032;-63
2021/12/19 08:46:02;;;;;;;2.42;0.20;;;14.20;57.20;;;;;;5129426;28;20455;-63
2021/12/19 08:48:28;;;;;;;0.90;0.40;;;14.20;56.50;;;;;;5127648;28;20114;-63
2021/12/19 08:50:54;;;;;;;1.27;0.20;;;14.10;56.40;;;;;;5129210;28;20114;-63
2021/12/19 08:53:19;;;;;;;1.00;0.20;;;14.20;56.50;;;;;;5115301;28;20402;-63
2021/12/19 08:55:45;;;;;;;1.00;0.20;;;14.20;56.50;;;;;;5114009;28;20089;-62
2021/12/19 08:58:11;;;;;;;1.08;0.20;;;14.20;56.50;;;;;;5114114;28;20043;-63
2021/12/19 09:00:40;;;;;;;1.17;0.20;;;14.20;56.50;;;;;;5115144;28;20051;-63
2021/12/19 09:03:06;;;;;;;1.13;0.30;;;14.20;56.50;;;;;;5114965;28;20046;-63
2021/12/19 09:05:32;;;;;;;2.97;0.57;;;14.20;56.50;;;;;;5113897;28;20036;-62
2021/12/19 09:07:58;;;;;;;1.25;0.20;;;14.20;56.50;;;;;;5115192;28;20031;-63
2021/12/19 09:10:24;;;;;;;1.25;0.30;;;14.20;56.50;;;;;;5115134;28;20517;-63
2021/12/19 09:12:50;;;;;;;1.42;0.30;;;14.20;56.50;;;;;;5113754;28;20047;-63
2021/12/19 09:15:16;;;;;;;0.95;0.20;;;14.20;56.60;;;;;;5114812;28;20089;-63
2021/12/19 09:17:42;;;;;;;1.00;0.20;;;14.20;56.50;;;;;;5113995;28;20127;-63
2021/12/19 09:20:09;;;;;;;1.20;0.20;;;14.10;56.50;;;;;;5113699;28;20181;-63
2021/12/19 09:22:38;;;;;;;0.85;0.10;;;14.20;56.50;;;;;;5113742;28;20085;-63
2021/12/19 09:25:05;;;;;;;1.02;0.20;;;14.20;56.50;;;;;;5112967;28;20071;-63
2021/12/19 09:27:30;;;;;;;2.92;0.30;;;14.20;56.50;;;;;;5114939;28;20031;-63
2021/12/19 09:29:56;;;;;;;1.17;0.20;;;14.10;56.50;;;;;;5113319;28;20211;-63
2021/12/19 09:32:22;;;;;;;0.93;0.20;;;14.20;56.60;;;;;;5114623;28;20092;-62
2021/12/19 09:34:47;;;;;;;2.50;0.63;;;14.10;56.50;;;;;;5114494;28;20395;-62
2021/12/19 09:37:14;;;;;;;1.05;0.25;;;14.20;56.60;;;;;;5114413;28;20032;-63
2021/12/19 09:39:40;;;;;;;3.63;0.30;;;14.20;56.50;;;;;;5113109;28;20040;-62
2021/12/19 09:42:09;;;;;;;2.00;0.22;;;14.20;56.50;;;;;;5114333;28;20074;-62
2021/12/19 09:44:37;;;;;;;2.03;0.30;;;14.20;56.50;;;;;;5114281;28;20383;-63
2021/12/19 09:47:04;;;;;;;1.48;0.20;;;14.20;56.50;;;;;;5114352;28;20032;-63
2021/12/19 09:49:32;;;;;;;1.50;0.30;;;14.20;56.60;;;;;;5112921;28;20478;-63
2021/12/19 09:51:59;;;;;;;1.60;0.20;;;14.20;56.60;;;;;;5114121;28;20390;-63
2021/12/19 09:54:28;;;;;;;1.98;0.40;;;14.10;56.50;;;;;;5114333;28;20035;-62
2021/12/19 09:56:54;;;;;;;0.98;0.25;;;14.20;56.60;;;;;;5112851;28;20067;-63
2021/12/19 09:59:21;;;;;;;1.52;0.20;;;14.10;56.50;;;;;;5114114;28;20059;-62
2021/12/19 10:01:49;;;;;;;0.90;0.20;;;14.20;56.60;;;;;;5112597;28;20613;-63
2021/12/19 10:07:20;;;;;;;1.23;0.30;;;14.20;56.50;;;;;;5129639;27;20379;-62
2021/12/19 10:10:06;;;;;;;0.70;0.20;;;14.10;56.60;;;;;;5129029;28;20039;-63
2021/12/19 10:15:19;;;;;;;1.25;0.30;;;14.20;56.60;;;;;;5089388;27;20389;-63
2021/12/19 10:17:59;;;;;;;2.80;0.30;;;14.10;56.60;;;;;;5122509;27;20044;-64
2021/12/19 10:20:25;;;;;;;1.50;0.23;;;14.20;56.60;;;;;;5088126;28;20048;-63
2021/12/19 10:22:53;;;;;;;3.25;0.47;;;14.20;56.70;;;;;;5088078;28;20093;-63
2021/12/19 10:25:25;;;;;;;1.38;0.30;;;14.10;56.60;;;;;;5087977;28;20040;-62
2021/12/19 10:27:56;;;;;;;1.38;0.25;;;14.10;56.60;;;;;;5088230;28;20075;-62
2021/12/19 10:30:43;;;;;;;1.13;0.30;;;14.20;56.70;;;;;;5071331;28;20090;-62
2021/12/19 10:33:12;;;;;;;1.02;0.20;;;14.20;56.60;;;;;;5087066;28;20093;-63
2021/12/19 10:38:22;;;;;;;1.52;0.30;;;14.20;56.70;;;;;;5151902;27;1194158;-63
2021/12/19 10:40:53;;;;;;;1.63;0.40;;;14.20;56.70;;;;;;5153119;27;20047;-63
2021/12/19 10:43:20;;;;;;;1.85;0.20;;;14.10;56.60;;;;;;5153006;27;20477;-63
2021/12/19 10:45:51;;;;;;;2.63;0.32;;;14.20;56.70;;;;;;5171766;27;20038;-63
2021/12/19 10:51:10;;;;;;;1.10;0.30;;;14.20;56.70;;;;;;5089385;28;20932;-62
2021/12/19 10:59:06;;;;;;;1.10;0.20;;;14.20;56.70;;;;;;5130236;27;20448;-62
2021/12/19 11:01:38;;;;;;;0.93;0.20;;;14.20;56.70;;;;;;5129244;28;20097;-63
2021/12/19 11:04:16;;;;;;;1.48;0.38;;;14.10;56.80;;;;;;5128958;28;20043;-63
2021/12/19 11:06:48;;;;;;;1.40;0.28;;;14.10;56.70;;;;;;5128969;28;20426;-63
2021/12/19 11:09:21;;;;;;;2.03;0.30;;;14.10;56.70;;;;;;5130673;27;20379;-63
2021/12/19 11:14:38;;;;;;;1.27;0.20;;;14.10;56.80;;;;;;5123656;27;1999560;-63
2021/12/19 11:17:15;;;;;;;1.05;0.20;;;14.20;56.70;;;;;;5153439;27;20077;-63
2021/12/19 11:19:43;;;;;;;1.33;0.20;;;14.20;56.80;;;;;;5153072;27;20054;-63
2021/12/19 11:22:10;;;;;;;0.75;0.20;;;14.20;56.80;;;;;;5152979;27;20077;-63
2021/12/19 11:24:36;;;;;;;0.68;0.17;;;14.10;56.80;;;;;;5152902;27;20050;-63
2021/12/19 11:27:05;;;;;;;2.38;0.35;;;14.20;56.80;;;;;;5152955;27;20116;-63
2021/12/19 11:29:33;;;;;;;0.55;0.20;;;14.10;56.80;;;;;;5152950;27;20086;-63
2021/12/19 11:32:06;;;;;;;1.65;0.30;;;14.10;56.80;;;;;;5171643;27;20062;-63
2021/12/19 11:37:15;;;;;;;1.45;0.25;;;14.10;56.80;;;;;;5130327;27;20411;-63
2021/12/19 11:39:46;;;;;;;0.90;0.50;;;14.10;56.80;;;;;;5128942;28;20035;-62
2021/12/19 11:42:14;;;;;;;;;;;14.10;56.80;;;;;;5129395;28;20040;-63
2021/12/19 11:44:54;;;;;;;1.55;0.20;;;14.10;56.70;;;;;;5129228;28;19916;-62
2021/12/19 12:04:01;;;;;;;1.95;0.43;;;14.10;57.00;;;;;;5130243;27;20371;-62
2021/12/19 12:06:31;;;;;;;2.42;0.30;;;14.10;56.90;;;;;;5129211;28;20039;-62
2021/12/19 12:09:21;;;;;;;1.73;0.20;;;14.10;57.00;;;;;;5130181;27;20073;-63
2021/12/19 12:15:05;;;;;;;0.70;0.15;;;14.10;57.00;;;;;;5130671;27;20411;-63
2021/12/19 12:17:36;;;;;;;3.22;0.32;;;14.10;57.00;;;;;;5129008;28;20126;-63
2021/12/19 12:20:12;;;;;;;2.15;0.30;;;14.10;57.00;;;;;;5129230;28;20107;-63
2021/12/19 12:22:44;;;;;;;1.95;0.20;;;14.10;57.00;;;;;;5146195;27;20040;-63
2021/12/19 12:28:02;;;;;;;1.00;0.22;;;14.10;57.00;;;;;;5150998;27;20107;-62
2021/12/19 12:30:33;;;;;;;1.45;0.20;;;14.10;57.10;;;;;;5130309;27;20415;-62
2021/12/19 12:33:01;;;;;;;3.10;0.40;;;14.10;57.10;;;;;;5129324;28;20414;-63
2021/12/19 12:35:31;;;;;;;1.88;0.30;;;14.10;57.80;;;;;;5128862;28;20072;-63
2021/12/19 12:37:58;;;;;;;1.92;0.30;;;14.10;57.10;;;;;;5128899;28;20043;-63
2021/12/19 12:40:31;;;;;;;2.30;0.30;;;14.10;57.10;;;;;;5128762;28;20051;-63
2021/12/19 12:54:16;;;;;;;2.42;0.30;;;14.10;57.00;;;;;;5130248;27;20422;-63
2021/12/19 12:56:48;;;;;;;1.17;0.30;;;14.10;57.10;;;;;;5129182;28;20047;-62
2021/12/19 12:59:19;;;;;;;2.45;0.47;;;14.10;57.10;;;;;;5128898;28;20031;-63
2021/12/19 13:01:50;;;;;;;1.08;0.20;;;14.10;57.10;;;;;;5129050;28;20039;-63
2021/12/19 13:09:40;;;;;;;2.30;0.30;;;14.10;57.00;;;;;;5130308;27;20354;-63
2021/12/19 13:22:53;;;;;;;1.88;0.32;;;14.10;57.10;;;;;;5109927;27;20359;-62
2021/12/19 13:25:22;;;;;;;1.65;0.30;;;14.10;57.10;;;;;;5108449;28;20135;-62
2021/12/19 13:27:52;;;;;;;1.02;0.30;;;14.10;57.10;;;;;;5108404;28;20059;-62
2021/12/19 13:35:43;;;;;;;3.58;0.50;;;14.00;57.10;;;;;;5150853;27;20356;-63
2021/12/19 13:40:51;;;;;;;1.27;0.30;;;14.10;57.10;;;;;;5130269;27;20426;-63
2021/12/19 13:43:19;;;;;;;2.88;0.30;;;14.00;57.10;;;;;;5128906;28;20058;-63
2021/12/19 13:48:38;;;;;;;2.55;0.82;;;14.00;57.10;;;;;;5089398;27;20179;-63
2021/12/19 13:51:13;;;;;;;2.22;0.50;;;14.00;57.10;;;;;;5088432;28;20044;-62
2021/12/19 13:53:45;;;;;;;1.50;0.40;;;14.00;57.10;;;;;;5088013;28;20050;-63
2021/12/19 13:56:13;;;;;;;1.38;0.28;;;14.00;57.10;;;;;;5088081;28;20048;-62
2021/12/19 13:58:43;;;;;;;1.70;0.40;;;14.00;57.90;;;;;;5089246;28;20571;-62
2021/12/19 14:01:19;;;;;;;2.70;0.40;;;14.00;57.10;;;;;;5088227;28;20044;-63
2021/12/19 14:03:49;;;;;;;1.98;0.30;;;14.00;57.10;;;;;;5087983;28;20480;-63
2021/12/19 14:06:24;;;;;;;1.65;0.30;;;14.00;57.10;;;;;;5089048;28;20480;-63
2021/12/19 14:08:56;;;;;;;2.03;0.20;;;14.00;57.10;;;;;;5089048;28;20048;-63
2021/12/19 14:11:24;;;;;;;2.92;0.30;;;14.00;57.10;;;;;;5089590;28;20082;-63
2021/12/19 14:13:59;;;;;;;2.30;0.47;;;14.00;57.20;;;;;;5087956;28;20044;-63
2021/12/19 14:16:30;;;;;;;1.20;0.35;;;14.00;57.20;;;;;;5087575;28;20043;-63
2021/12/19 14:18:55;;;;;;;2.67;0.30;;;14.00;57.20;;;;;;5088880;28;20040;-62
2021/12/19 14:21:38;;;;;;;2.63;0.68;;;14.00;57.20;;;;;;5089201;28;20040;-62
2021/12/19 14:27:03;;;;;;;3.20;0.30;;;14.00;57.20;;;;;;5130336;27;20575;-63
2021/12/19 14:29:29;;;;;;;2.20;0.28;;;14.00;57.20;;;;;;5130177;27;20047;-63
2021/12/19 14:31:59;;;;;;;1.90;0.20;;;14.00;57.20;;;;;;5128095;28;20047;-63
2021/12/19 14:34:28;;;;;;;3.15;0.30;;;14.00;57.90;;;;;;5128120;28;20114;-62
2021/12/19 14:36:55;;;;;;;3.63;0.77;;;14.00;57.20;;;;;;5128804;28;20044;-62
2021/12/19 14:39:25;;;;;;;1.73;0.30;;;14.00;57.20;;;;;;5128876;28;20043;-63
2021/12/19 14:41:51;;;;;;;1.63;0.50;;;14.00;57.20;;;;;;5130250;28;20039;-63
2021/12/19 14:44:21;;;;;;;1.98;0.57;;;14.00;57.20;;;;;;5128567;28;20046;-63
2021/12/19 14:46:48;;;;;;;1.85;0.20;;;14.00;57.30;;;;;;5128968;28;20487;-64
2021/12/19 14:49:14;;;;;;;2.38;0.35;;;14.00;57.30;;;;;;5129837;28;20114;-63
2021/12/19 14:51:40;;;;;;;3.25;0.47;;;14.00;57.30;;;;;;5129888;28;20067;-63
2021/12/19 14:54:06;;;;;;;2.17;0.47;;;14.00;57.30;;;;;;5129742;28;20091;-63
2021/12/19 14:56:31;;;;;;;2.38;0.40;;;14.00;57.30;;;;;;5128678;27;20039;-64
2021/12/19 14:59:00;;;;;;;2.20;0.40;;;14.00;57.30;;;;;;5128748;28;20051;-63
2021/12/19 15:01:30;;;;;;;2.67;0.30;;;14.00;57.30;;;;;;5129592;27;20043;-64
2021/12/19 15:04:00;;;;;;;3.00;0.63;;;14.00;57.30;;;;;;5128377;28;20051;-62
2021/12/19 15:06:30;;;;;;;3.65;0.22;;;14.00;57.40;;;;;;5128172;28;20046;-63
2021/12/19 15:08:58;;;;;;;2.78;0.40;;;13.90;57.30;;;;;;5129535;28;20071;-63
2021/12/19 15:11:24;;;;;;;2.83;0.30;;;14.00;57.30;;;;;;5128169;28;20038;-63
2021/12/19 15:13:50;;;;;;;3.50;0.50;;;13.90;57.30;;;;;;5129626;28;20316;-63
2021/12/19 15:16:17;;;;;;;1.20;0.40;;;13.90;57.30;;;;;;5129449;28;20167;-63
2021/12/19 15:18:44;;;;;;;2.58;0.43;;;14.00;57.40;;;;;;5127932;28;20047;-63
2021/12/19 15:21:10;;;;;;;1.45;0.30;;;14.00;57.40;;;;;;5127957;28;20071;-63